CheckWX is a tool to help pilots better visualize weather data.  It is not intended as a substitute for an official pre-flight weather briefing.

20:02:35 UTC

LEEC METAR
Sevilla / El Coper Airport
Sevilla, Spain
Current

6 hours ago

LEEC 221400Z 22014KT 9999 SCT010 BKN020 17/16 Q0998
Observed
Nov-22 @ 14:00 UTC
Wind
  • 220° at 14 KTS
Visibility
10,000+ meters
Flight Rules
MVFR
Cloud Levels
  • Scattered at 1,000' AGL
  • Broken at 2,000' AGL
Temperature
17°C / 63°F
Dewpoint
16°C / 61°F
Humidity
94%
Altimeter
29.47" Hg
Pressure
997.92 hPa
Previous

7 hours ago

LEEC 221300Z 23013KT 4000 -RA BKN007 OVC015 17/16 Q1010 RERA
Observed
Nov-22 @ 13:00 UTC
Wind
  • 230° at 13 KTS
Visibility
4,000 meters
Flight Rules
IFR
Conditions
Light Rain
Cloud Levels
  • Broken at 700' AGL
  • Overcast at 1,500' AGL
Temperature
17°C / 63°F
Dewpoint
16°C / 61°F
Humidity
94%
Altimeter
29.82" Hg
Pressure
1009.92 hPa
Previous

8 hours ago

LEEC 221200Z 21014KT 9999 BKN009 BKN020 17/16 Q1001
Observed
Nov-22 @ 12:00 UTC
Wind
  • 210° at 14 KTS
Visibility
10,000+ meters
Flight Rules
IFR
Cloud Levels
  • Broken at 900' AGL
  • Broken at 2,000' AGL
Temperature
17°C / 63°F
Dewpoint
16°C / 61°F
Humidity
94%
Altimeter
29.56" Hg
Pressure
1000.92 hPa